Time;durP1;ratioP1;P1;durP2;ratioP2;P2;SDS_P1;SDS_P2;PMS_P1;PMS_P2;Temp;Humidity;BMP_temperature;BMP_pressure;BME280_temperature;BME280_humidity;BME280_pressure;Samples;Min_cycle;Max_cycle;Signal;HPM_P1;HPM_P2
2023/12/16 00:00:44;;;;;;;13.30;6.32;;;18.60;42.70;;;;;;5112216;28;20186;-60
2023/12/16 00:03:11;;;;;;;14.80;6.40;;;18.60;42.70;;;;;;5112626;28;20622;-61
2023/12/16 00:05:38;;;;;;;11.77;5.80;;;18.60;42.70;;;;;;5112630;28;20191;-61
2023/12/16 00:08:05;;;;;;;12.90;6.25;;;18.60;42.70;;;;;;5112457;28;20209;-60
2023/12/16 00:10:33;;;;;;;13.13;6.57;;;18.60;42.70;;;;;;5112474;28;20189;-59
2023/12/16 00:13:00;;;;;;;12.13;5.45;;;18.60;42.80;;;;;;5112472;28;20220;-61
2023/12/16 00:15:27;;;;;;;12.68;5.63;;;18.60;42.80;;;;;;5112392;28;20235;-60
2023/12/16 00:17:54;;;;;;;11.02;5.22;;;18.60;42.80;;;;;;5115889;28;20299;-61
2023/12/16 00:20:21;;;;;;;11.65;5.57;;;18.60;42.80;;;;;;5116536;28;20268;-60
2023/12/16 00:22:48;;;;;;;11.25;5.20;;;18.60;42.80;;;;;;5116190;28;20220;-60
2023/12/16 00:25:15;;;;;;;10.23;5.43;;;18.60;42.80;;;;;;5116432;28;20276;-61
2023/12/16 00:27:43;;;;;;;12.82;5.45;;;18.60;42.80;;;;;;5116647;28;20304;-61
2023/12/16 00:30:10;;;;;;;11.43;5.72;;;18.60;42.80;;;;;;5115887;28;20189;-60
2023/12/16 00:32:39;;;;;;;8.82;4.82;;;18.60;42.80;;;;;;5115937;28;20699;-61
2023/12/16 00:35:08;;;;;;;13.70;5.70;;;18.50;42.80;;;;;;5115860;28;20213;-60
2023/12/16 00:37:34;;;;;;;9.05;5.10;;;18.50;42.70;;;;;;5115956;28;20209;-61
2023/12/16 00:40:02;;;;;;;12.40;5.43;;;18.50;42.80;;;;;;5116080;28;20192;-59
2023/12/16 00:42:30;;;;;;;9.85;5.32;;;18.50;42.80;;;;;;5116076;28;20220;-60
2023/12/16 00:44:58;;;;;;;12.45;5.25;;;18.50;43.40;;;;;;5115779;28;20185;-59
2023/12/16 00:47:25;;;;;;;12.60;5.38;;;18.50;42.80;;;;;;5116031;28;20217;-60
2023/12/16 00:49:52;;;;;;;11.57;5.22;;;18.50;43.40;;;;;;5115674;28;20191;-60
2023/12/16 00:52:19;;;;;;;11.23;5.35;;;18.50;43.40;;;;;;5115547;28;20216;-60
2023/12/16 00:54:46;;;;;;;11.15;4.88;;;18.50;43.50;;;;;;5115815;28;20224;-60
2023/12/16 00:57:13;;;;;;;8.35;4.80;;;18.50;42.80;;;;;;5115781;28;20212;-60
2023/12/16 00:59:40;;;;;;;12.60;5.25;;;18.50;42.80;;;;;;5115288;28;20186;-61
2023/12/16 01:02:08;;;;;;;11.25;5.10;;;18.50;42.80;;;;;;5115586;28;20303;-60
2023/12/16 01:04:35;;;;;;;10.55;4.43;;;18.50;42.90;;;;;;5115595;28;20189;-60
2023/12/16 01:07:02;;;;;;;13.38;5.15;;;18.50;42.90;;;;;;5115467;28;20217;-60
2023/12/16 01:09:29;;;;;;;11.90;5.28;;;18.50;42.90;;;;;;5115521;28;20579;-60
2023/12/16 01:11:56;;;;;;;10.13;5.40;;;18.50;42.90;;;;;;5115262;28;20255;-60
2023/12/16 01:14:23;;;;;;;12.10;4.82;;;18.40;42.90;;;;;;5115327;28;20581;-60
2023/12/16 01:16:50;;;;;;;10.73;4.90;;;18.50;42.90;;;;;;5115347;28;20244;-60
2023/12/16 01:19:18;;;;;;;14.07;5.07;;;18.50;42.90;;;;;;5115060;28;20232;-60
2023/12/16 01:21:45;;;;;;;11.40;4.82;;;18.50;42.90;;;;;;5114612;28;20701;-59
2023/12/16 01:24:12;;;;;;;12.15;5.00;;;18.50;42.90;;;;;;5115294;28;20209;-60
2023/12/16 01:26:39;;;;;;;8.55;5.10;;;18.40;42.90;;;;;;5115398;28;20213;-61
2023/12/16 01:29:06;;;;;;;11.68;5.43;;;18.40;42.90;;;;;;5113439;28;20185;-60
2023/12/16 01:31:32;;;;;;;12.05;4.70;;;18.50;43.60;;;;;;5115077;28;20276;-60
2023/12/16 01:33:59;;;;;;;11.52;5.13;;;18.50;43.60;;;;;;5115048;28;20223;-61
2023/12/16 01:36:27;;;;;;;11.25;4.68;;;18.50;43.10;;;;;;5114518;28;20209;-60
2023/12/16 01:38:54;;;;;;;11.07;5.00;;;18.40;42.90;;;;;;5115052;28;20271;-60
2023/12/16 01:41:21;;;;;;;10.30;4.43;;;18.40;43.00;;;;;;5114774;28;20185;-60
2023/12/16 01:43:48;;;;;;;10.60;4.60;;;18.40;43.20;;;;;;5114558;28;20190;-60
2023/12/16 01:46:15;;;;;;;11.30;4.32;;;18.40;43.00;;;;;;5114826;28;20268;-60
2023/12/16 01:48:43;;;;;;;10.40;4.60;;;18.40;43.50;;;;;;5115060;28;20209;-60
2023/12/16 01:51:10;;;;;;;14.02;4.90;;;18.40;43.00;;;;;;5114321;28;20190;-59
2023/12/16 01:53:39;;;;;;;11.48;4.80;;;18.40;43.00;;;;;;5114597;28;20588;-60
2023/12/16 01:56:07;;;;;;;10.98;5.03;;;18.40;43.10;;;;;;5114316;28;20585;-60
2023/12/16 01:58:35;;;;;;;8.48;4.57;;;18.40;43.10;;;;;;5114109;28;20307;-61
2023/12/16 02:01:03;;;;;;;8.70;4.30;;;18.40;43.10;;;;;;5114514;28;20192;-60
2023/12/16 02:03:32;;;;;;;13.43;5.00;;;18.40;43.10;;;;;;5114399;28;20213;-60
2023/12/16 02:06:00;;;;;;;10.70;4.15;;;18.40;43.10;;;;;;5114206;28;20185;-59
2023/12/16 02:08:27;;;;;;;8.73;4.30;;;18.40;43.20;;;;;;5114375;28;20217;-61
2023/12/16 02:10:55;;;;;;;14.88;4.22;;;18.40;43.20;;;;;;5114058;28;20265;-60
2023/12/16 02:13:23;;;;;;;13.15;5.03;;;18.40;43.20;;;;;;5113975;28;20213;-59
2023/12/16 02:15:50;;;;;;;8.90;4.05;;;18.30;43.10;;;;;;5112172;28;20590;-60
2023/12/16 02:18:17;;;;;;;9.60;4.00;;;18.30;43.80;;;;;;5080663;28;20229;-60
2023/12/16 02:20:46;;;;;;;10.00;4.07;;;18.40;43.20;;;;;;5073215;28;20225;-60
2023/12/16 02:23:17;;;;;;;9.82;4.20;;;18.30;43.20;;;;;;5073473;28;20227;-60
2023/12/16 02:25:44;;;;;;;7.80;3.72;;;18.40;43.90;;;;;;5073418;28;20274;-60
2023/12/16 02:28:11;;;;;;;8.35;4.40;;;18.40;43.30;;;;;;5072883;28;20240;-60
2023/12/16 02:30:38;;;;;;;7.00;3.83;;;18.30;43.20;;;;;;5072975;28;20197;-60
2023/12/16 02:33:05;;;;;;;10.50;4.13;;;18.40;43.30;;;;;;5072866;28;20675;-60
2023/12/16 02:35:32;;;;;;;8.98;4.22;;;18.30;43.30;;;;;;5072516;28;20218;-61
2023/12/16 02:37:58;;;;;;;11.23;4.43;;;18.30;43.90;;;;;;5072896;28;20324;-60
2023/12/16 02:40:27;;;;;;;10.40;3.58;;;18.30;43.30;;;;;;5072500;28;20191;-61
2023/12/16 02:42:54;;;;;;;10.38;3.83;;;18.40;43.40;;;;;;5072949;28;20218;-60
2023/12/16 02:45:20;;;;;;;8.43;3.90;;;18.30;43.40;;;;;;5073137;28;20197;-60
2023/12/16 02:47:47;;;;;;;8.48;4.15;;;18.30;43.30;;;;;;5072720;28;20692;-60
2023/12/16 02:50:14;;;;;;;8.55;3.97;;;18.30;44.00;;;;;;5072469;28;20657;-60
2023/12/16 02:52:41;;;;;;;6.75;3.75;;;18.30;43.40;;;;;;5072512;28;20246;-61
2023/12/16 02:55:08;;;;;;;9.52;4.43;;;18.30;43.40;;;;;;5072833;28;20215;-60
2023/12/16 02:57:37;;;;;;;10.43;3.90;;;18.30;43.50;;;;;;5072384;28;20222;-60
2023/12/16 03:00:04;;;;;;;9.43;4.18;;;18.30;44.10;;;;;;5072741;28;20187;-60
2023/12/16 03:02:31;;;;;;;8.82;3.83;;;18.30;43.50;;;;;;5072933;28;20302;-61
2023/12/16 03:04:58;;;;;;;7.15;3.45;;;18.30;43.50;;;;;;5083371;28;20237;-60
2023/12/16 03:07:25;;;;;;;10.23;3.80;;;18.30;44.20;;;;;;5079448;28;20224;-59
2023/12/16 03:09:51;;;;;;;9.98;3.83;;;18.30;43.50;;;;;;5092821;28;20194;-61
2023/12/16 03:12:18;;;;;;;9.27;4.15;;;18.30;43.50;;;;;;5079746;28;20270;-60
2023/12/16 03:14:47;;;;;;;8.63;3.50;;;18.30;43.60;;;;;;5072400;28;20226;-60
2023/12/16 03:17:15;;;;;;;8.93;3.67;;;18.30;43.60;;;;;;5072553;28;20247;-61
2023/12/16 03:19:42;;;;;;;12.32;4.20;;;18.30;43.60;;;;;;5072150;28;20218;-59
2023/12/16 03:22:09;;;;;;;8.88;4.07;;;18.30;44.30;;;;;;5072401;28;20225;-60
2023/12/16 03:24:36;;;;;;;11.10;3.67;;;18.20;43.50;;;;;;5072407;28;20183;-61
2023/12/16 03:27:03;;;;;;;7.70;3.55;;;18.30;43.70;;;;;;5072047;28;20314;-60
2023/12/16 03:29:31;;;;;;;8.38;4.00;;;18.30;43.70;;;;;;5072379;28;20269;-59
2023/12/16 03:31:59;;;;;;;7.60;3.65;;;18.30;43.80;;;;;;5071954;28;20718;-61
2023/12/16 03:34:26;;;;;;;9.65;4.05;;;18.20;43.70;;;;;;5071693;28;20197;-61
2023/12/16 03:36:53;;;;;;;11.65;4.18;;;18.30;43.80;;;;;;5071952;28;20231;-60
2023/12/16 03:39:20;;;;;;;7.53;3.38;;;18.20;44.40;;;;;;5072004;28;20187;-60
2023/12/16 03:41:47;;;;;;;9.63;3.70;;;18.20;43.80;;;;;;5071558;28;20671;-59
2023/12/16 03:44:14;;;;;;;8.90;3.95;;;18.20;43.80;;;;;;5072008;28;20282;-60
2023/12/16 03:46:41;;;;;;;9.05;3.63;;;18.20;43.90;;;;;;5072163;28;20214;-60
2023/12/16 03:49:09;;;;;;;14.35;4.30;;;18.20;43.90;;;;;;5071943;28;20193;-60
2023/12/16 03:51:37;;;;;;;9.10;3.80;;;18.20;43.90;;;;;;5073155;28;20183;-61
2023/12/16 03:54:04;;;;;;;6.97;3.50;;;18.20;44.00;;;;;;5076415;28;20187;-60
2023/12/16 03:56:31;;;;;;;10.88;3.70;;;18.20;43.90;;;;;;5075868;28;20653;-60
2023/12/16 03:58:58;;;;;;;8.60;3.50;;;18.20;44.00;;;;;;5075913;28;20197;-60
2023/12/16 04:01:25;;;;;;;7.45;3.35;;;18.20;44.60;;;;;;5076152;28;20198;-60
2023/12/16 04:03:51;;;;;;;8.88;3.15;;;18.20;44.00;;;;;;5075741;28;20301;-61
2023/12/16 04:06:20;;;;;;;9.18;3.60;;;18.20;44.10;;;;;;5076155;28;20278;-60
2023/12/16 04:08:46;;;;;;;7.78;3.65;;;18.20;44.10;;;;;;5075965;28;20746;-60
2023/12/16 04:11:13;;;;;;;8.90;3.38;;;18.20;44.10;;;;;;5075226;28;20722;-59
2023/12/16 04:13:40;;;;;;;8.95;3.53;;;18.20;44.20;;;;;;5075918;28;20214;-61
2023/12/16 04:16:08;;;;;;;9.38;2.95;;;18.20;44.30;;;;;;5076050;28;20230;-60
2023/12/16 04:18:36;;;;;;;7.88;3.30;;;18.20;44.30;;;;;;5075348;28;20719;-60
2023/12/16 04:21:03;;;;;;;8.50;3.50;;;18.20;44.40;;;;;;5075726;28;20210;-60
2023/12/16 04:23:31;;;;;;;6.90;3.20;;;18.20;44.30;;;;;;5075792;28;20309;-60
2023/12/16 04:25:58;;;;;;;11.23;3.40;;;18.20;44.40;;;;;;5075287;28;20282;-60
2023/12/16 04:28:25;;;;;;;7.40;3.30;;;18.20;45.10;;;;;;5075723;28;20210;-61
2023/12/16 04:30:52;;;;;;;5.47;2.92;;;18.20;44.50;;;;;;5075681;28;20294;-61
2023/12/16 04:33:19;;;;;;;12.45;3.60;;;18.20;44.50;;;;;;5075452;28;20214;-60
2023/12/16 04:35:46;;;;;;;7.57;3.58;;;18.20;44.60;;;;;;5075104;28;20222;-61
2023/12/16 04:38:13;;;;;;;7.63;3.50;;;18.10;44.50;;;;;;5075158;28;20226;-60
2023/12/16 04:40:41;;;;;;;8.48;3.53;;;18.20;45.30;;;;;;5075008;28;20198;-60
2023/12/16 04:43:08;;;;;;;6.93;2.97;;;18.20;44.70;;;;;;5075322;28;20222;-60
2023/12/16 04:45:35;;;;;;;8.65;3.42;;;18.20;44.70;;;;;;5075328;28;20191;-60
2023/12/16 04:48:02;;;;;;;6.53;3.30;;;18.10;45.30;;;;;;5075033;28;20215;-60
2023/12/16 04:50:29;;;;;;;8.43;3.45;;;18.20;44.70;;;;;;5074838;28;20191;-60
2023/12/16 04:52:56;;;;;;;8.23;3.00;;;18.20;45.40;;;;;;5075178;28;20305;-60
2023/12/16 04:55:23;;;;;;;9.27;3.30;;;18.20;44.70;;;;;;5074813;28;20197;-59
2023/12/16 04:57:51;;;;;;;10.98;4.05;;;18.20;44.70;;;;;;5075032;28;20387;-60
2023/12/16 05:00:18;;;;;;;10.32;3.05;;;18.20;44.70;;;;;;5074910;28;20751;-60
2023/12/16 05:02:45;;;;;;;7.72;3.17;;;18.20;44.70;;;;;;5074650;28;20666;-60
2023/12/16 05:05:12;;;;;;;7.28;2.88;;;18.20;44.70;;;;;;5075066;28;20341;-61
2023/12/16 05:07:40;;;;;;;8.88;3.83;;;18.20;44.70;;;;;;5074883;28;20301;-60
2023/12/16 05:10:10;;;;;;;7.35;3.17;;;18.20;44.70;;;;;;5074318;28;20277;-60
2023/12/16 05:12:38;;;;;;;8.02;3.05;;;18.10;44.60;;;;;;5074533;28;20727;-60
2023/12/16 05:15:07;;;;;;;8.13;3.13;;;18.20;44.70;;;;;;5075011;28;20675;-60
2023/12/16 05:17:34;;;;;;;5.13;2.70;;;18.10;44.60;;;;;;5074181;28;20240;-60
2023/12/16 05:20:01;;;;;;;12.65;3.08;;;18.20;44.70;;;;;;5074360;28;20183;-60
2023/12/16 05:22:33;;;;;;;6.47;3.20;;;18.10;44.60;;;;;;5074744;28;20273;-61
2023/12/16 05:25:00;;;;;;;8.57;3.20;;;18.10;44.70;;;;;;5074284;28;20191;-60
2023/12/16 05:27:27;;;;;;;8.30;3.38;;;18.10;45.40;;;;;;5074236;28;20221;-61
2023/12/16 05:29:54;;;;;;;5.43;2.45;;;18.20;45.40;;;;;;5074549;28;20201;-61
2023/12/16 05:32:22;;;;;;;8.20;3.45;;;18.10;44.80;;;;;;5074196;28;20214;-61
2023/12/16 05:34:49;;;;;;;6.40;2.97;;;18.10;45.60;;;;;;5074472;28;20191;-61
2023/12/16 05:37:15;;;;;;;7.90;2.97;;;18.10;44.90;;;;;;5074136;28;20610;-60
2023/12/16 05:39:42;;;;;;;6.32;2.72;;;18.10;44.80;;;;;;5073970;28;20195;-60
2023/12/16 05:42:09;;;;;;;5.65;2.58;;;18.20;44.80;;;;;;5074543;28;20218;-60
2023/12/16 05:44:36;;;;;;;5.60;2.70;;;18.20;44.80;;;;;;5074316;28;20273;-60
2023/12/16 05:47:03;;;;;;;5.18;2.50;;;18.30;45.00;;;;;;5073846;28;20225;-61
2023/12/16 05:49:31;;;;;;;5.03;2.33;;;18.40;45.00;;;;;;5073819;28;20191;-61
2023/12/16 05:51:58;;;;;;;5.35;2.58;;;18.50;44.90;;;;;;5073773;28;20283;-60
2023/12/16 05:54:25;;;;;;;5.82;2.72;;;18.70;45.80;;;;;;5073712;28;20193;-61
2023/12/16 05:56:52;;;;;;;6.32;2.25;;;18.80;45.00;;;;;;5073762;28;20225;-60
2023/12/16 05:59:19;;;;;;;6.32;2.45;;;19.00;44.80;;;;;;5073664;28;20657;-60
2023/12/16 06:01:45;;;;;;;6.18;2.67;;;19.10;44.60;;;;;;5073092;28;20649;-60
2023/12/16 06:04:13;;;;;;;7.15;2.65;;;19.20;44.50;;;;;;5073643;28;20282;-60
2023/12/16 06:06:42;;;;;;;8.32;2.78;;;19.40;44.40;;;;;;5073568;28;20222;-60
2023/12/16 06:09:09;;;;;;;4.15;2.25;;;19.50;44.20;;;;;;5073083;28;20183;-60
2023/12/16 06:11:35;;;;;;;5.85;2.95;;;19.70;44.10;;;;;;5073353;28;20767;-60
2023/12/16 06:14:02;;;;;;;6.60;2.25;;;19.80;44.00;;;;;;5073028;28;20305;-60
2023/12/16 06:16:29;;;;;;;6.88;2.65;;;20.00;43.90;;;;;;5073281;28;20218;-60
2023/12/16 06:18:56;;;;;;;4.38;2.05;;;20.10;44.40;;;;;;5073497;28;20218;-60
2023/12/16 06:21:23;;;;;;;6.65;2.50;;;20.20;43.50;;;;;;5073234;28;20603;-59
2023/12/16 06:23:51;;;;;;;4.63;2.25;;;20.40;43.50;;;;;;5072924;28;20719;-60
2023/12/16 06:26:18;;;;;;;6.00;2.53;;;20.50;43.40;;;;;;5073444;28;20282;-60
2023/12/16 06:28:45;;;;;;;6.65;2.42;;;20.60;43.30;;;;;;5073271;28;20614;-60
2023/12/16 06:31:16;;;;;;;7.22;2.42;;;20.70;43.10;;;;;;5073042;28;20197;-60
2023/12/16 06:33:43;;;;;;;5.28;2.20;;;20.80;42.90;;;;;;5073469;28;20219;-60
2023/12/16 06:36:10;;;;;;;5.75;2.47;;;20.90;42.80;;;;;;5073262;28;20260;-60
2023/12/16 06:38:37;;;;;;;8.45;2.38;;;21.00;42.70;;;;;;5073013;28;20221;-59
2023/12/16 06:41:06;;;;;;;4.80;2.30;;;21.10;42.60;;;;;;5072831;28;20536;-60
2023/12/16 06:43:32;;;;;;;5.13;1.90;;;21.20;42.50;;;;;;5072998;28;20301;-60
2023/12/16 06:45:59;;;;;;;8.38;2.70;;;21.20;42.30;;;;;;5072785;28;20205;-60
2023/12/16 06:48:26;;;;;;;4.07;1.75;;;21.30;42.40;;;;;;5072779;28;20656;-60
2023/12/16 06:50:57;;;;;;;6.38;2.10;;;21.40;42.50;;;;;;5072636;28;20653;-60
2023/12/16 06:53:24;;;;;;;4.88;2.28;;;21.40;42.30;;;;;;5073017;28;20231;-57
2023/12/16 06:55:52;;;;;;;4.75;2.20;;;21.50;42.30;;;;;;5072763;28;20191;-60
2023/12/16 06:58:21;;;;;;;4.07;1.92;;;21.60;42.20;;;;;;5072773;28;20683;-60
2023/12/16 07:00:48;;;;;;;6.97;2.50;;;21.60;42.10;;;;;;5072361;28;20194;-60
2023/12/16 07:03:15;;;;;;;4.00;2.20;;;21.70;42.10;;;;;;5072799;28;20297;-60
2023/12/16 07:05:41;;;;;;;7.20;2.72;;;21.80;42.10;;;;;;5072490;28;20191;-60
2023/12/16 07:08:08;;;;;;;4.57;2.03;;;21.80;42.00;;;;;;5072648;28;20215;-60
2023/12/16 07:10:35;;;;;;;4.57;2.20;;;21.90;42.00;;;;;;5072284;28;20194;-60
2023/12/16 07:13:02;;;;;;;6.32;2.05;;;21.90;41.90;;;;;;5072629;28;20214;-59
2023/12/16 07:15:30;;;;;;;4.93;2.03;;;21.90;41.70;;;;;;5072831;28;20199;-61
2023/12/16 07:17:57;;;;;;;5.10;1.90;;;21.90;41.70;;;;;;5072288;28;20230;-60
2023/12/16 07:20:24;;;;;;;5.95;2.17;;;21.90;42.30;;;;;;5072486;28;20191;-60
2023/12/16 07:22:51;;;;;;;5.22;2.38;;;21.90;41.80;;;;;;5072181;28;20806;-60
2023/12/16 07:25:18;;;;;;;4.55;2.03;;;21.80;41.80;;;;;;5071655;28;20189;-60
2023/12/16 07:27:45;;;;;;;4.88;2.30;;;21.70;41.90;;;;;;5071847;28;20719;-60
2023/12/16 07:30:13;;;;;;;5.63;2.30;;;21.60;42.50;;;;;;5072095;28;20193;-60
2023/12/16 07:32:41;;;;;;;5.82;1.95;;;21.50;42.00;;;;;;5072071;28;20696;-59
2023/12/16 07:35:13;;;;;;;4.55;2.05;;;21.40;42.80;;;;;;5072351;28;20191;-60
2023/12/16 07:37:40;;;;;;;5.63;2.35;;;21.30;42.20;;;;;;5072396;28;20231;-60
2023/12/16 07:40:09;;;;;;;4.30;1.98;;;21.20;42.30;;;;;;5072210;28;20552;-60
2023/12/16 07:42:36;;;;;;;5.68;2.33;;;21.10;42.20;;;;;;5087363;28;20704;-60
2023/12/16 07:45:04;;;;;;;7.97;2.83;;;21.00;42.40;;;;;;5072335;28;20278;-61
2023/12/16 07:47:31;;;;;;;3.97;1.83;;;20.90;42.50;;;;;;5071866;28;20214;-60
2023/12/16 07:49:58;;;;;;;3.75;2.20;;;20.80;43.40;;;;;;5071879;28;20564;-60
2023/12/16 07:52:25;;;;;;;5.10;2.00;;;20.70;42.90;;;;;;5072375;28;20226;-60
2023/12/16 07:54:52;;;;;;;7.07;2.55;;;20.70;43.00;;;;;;5071768;28;20281;-60
2023/12/16 07:57:18;;;;;;;5.45;2.20;;;20.60;43.80;;;;;;5071710;28;20688;-61
2023/12/16 07:59:46;;;;;;;6.57;1.92;;;20.50;43.20;;;;;;5072005;28;20293;-60
2023/12/16 08:02:13;;;;;;;4.50;2.08;;;20.40;43.30;;;;;;5071279;28;20683;-60
2023/12/16 08:04:40;;;;;;;4.07;1.88;;;20.40;43.50;;;;;;5072117;28;20189;-60
2023/12/16 08:07:08;;;;;;;5.22;1.83;;;20.30;44.20;;;;;;5071873;28;20199;-60
2023/12/16 08:09:35;;;;;;;5.50;2.13;;;20.20;43.60;;;;;;5071604;28;20555;-60
2023/12/16 08:12:02;;;;;;;5.32;2.30;;;20.10;43.60;;;;;;5071633;28;20234;-60
2023/12/16 08:14:29;;;;;;;4.82;2.45;;;20.10;43.70;;;;;;5072342;28;20202;-59
2023/12/16 08:16:56;;;;;;;5.30;2.28;;;20.00;43.80;;;;;;5071462;28;20214;-60
2023/12/16 08:19:23;;;;;;;4.90;2.00;;;20.00;43.90;;;;;;5071916;28;20198;-60
2023/12/16 08:21:50;;;;;;;5.85;2.25;;;19.90;44.60;;;;;;5071920;28;20488;-60
2023/12/16 08:24:18;;;;;;;5.00;2.38;;;19.90;44.10;;;;;;5071106;28;20215;-60
2023/12/16 08:26:48;;;;;;;5.88;2.60;;;19.80;44.10;;;;;;5071633;28;20191;-60
2023/12/16 08:29:15;;;;;;;6.68;2.20;;;19.80;44.20;;;;;;5072062;28;20214;-59
2023/12/16 08:31:42;;;;;;;4.72;2.30;;;19.70;44.30;;;;;;5071111;28;20636;-60
2023/12/16 08:34:09;;;;;;;5.35;2.00;;;19.70;44.40;;;;;;5071653;28;20309;-60
2023/12/16 08:36:36;;;;;;;6.50;2.53;;;19.70;44.50;;;;;;5071618;28;20223;-60
2023/12/16 08:39:03;;;;;;;5.82;2.45;;;19.60;45.20;;;;;;5074741;28;20273;-60
2023/12/16 08:41:31;;;;;;;4.38;2.22;;;19.50;44.50;;;;;;5075360;28;20187;-60
2023/12/16 08:43:58;;;;;;;6.82;2.50;;;19.50;45.30;;;;;;5075551;28;20310;-60
2023/12/16 08:46:25;;;;;;;6.65;2.35;;;19.50;45.40;;;;;;5066942;28;20274;-60
2023/12/16 08:48:53;;;;;;;3.95;1.98;;;19.40;44.70;;;;;;5075176;28;20211;-59
2023/12/16 08:51:22;;;;;;;5.93;2.40;;;19.40;44.90;;;;;;5075269;28;20238;-60
2023/12/16 08:53:49;;;;;;;6.15;2.33;;;19.40;45.00;;;;;;5075185;28;20214;-60
2023/12/16 08:56:17;;;;;;;5.15;1.95;;;19.40;45.80;;;;;;5075200;28;20187;-59
2023/12/16 08:58:46;;;;;;;4.38;1.92;;;19.30;45.10;;;;;;5075153;28;20233;-60
2023/12/16 09:01:13;;;;;;;6.97;2.00;;;19.30;45.20;;;;;;5074734;28;20191;-60
2023/12/16 09:03:42;;;;;;;6.18;2.47;;;19.20;45.90;;;;;;5075178;28;20302;-60
2023/12/16 09:06:09;;;;;;;4.45;2.28;;;19.20;45.40;;;;;;5075029;28;20195;-59
2023/12/16 09:08:36;;;;;;;3.80;1.83;;;19.20;45.50;;;;;;5074994;28;20218;-61
2023/12/16 09:11:04;;;;;;;4.00;1.90;;;19.20;45.50;;;;;;5074617;28;20239;-59
2023/12/16 09:13:30;;;;;;;5.68;2.20;;;19.20;45.50;;;;;;5075226;28;20215;-60
2023/12/16 09:15:59;;;;;;;4.63;1.80;;;19.20;46.20;;;;;;5074706;28;20648;-60
2023/12/16 09:18:26;;;;;;;5.53;2.00;;;19.10;45.40;;;;;;5074885;28;20234;-60
2023/12/16 09:20:52;;;;;;;5.30;2.10;;;19.10;45.50;;;;;;5074743;28;20632;-61
2023/12/16 09:23:19;;;;;;;6.35;2.47;;;19.10;46.00;;;;;;5074308;28;20229;-60
2023/12/16 09:25:46;;;;;;;4.53;1.98;;;19.10;45.50;;;;;;5074723;28;20281;-60
2023/12/16 09:28:13;;;;;;;6.15;1.80;;;19.10;45.50;;;;;;5074609;28;20219;-60
2023/12/16 09:30:40;;;;;;;4.38;1.85;;;19.00;45.40;;;;;;5074185;28;20273;-60
2023/12/16 09:33:09;;;;;;;3.42;1.90;;;19.00;45.50;;;;;;5074600;28;20215;-60
2023/12/16 09:35:36;;;;;;;5.35;2.22;;;19.00;46.40;;;;;;5074193;28;20602;-60
2023/12/16 09:38:03;;;;;;;4.90;1.80;;;19.00;45.80;;;;;;5074015;28;20241;-60
2023/12/16 09:40:30;;;;;;;5.63;2.17;;;19.00;46.00;;;;;;5074077;28;20195;-60
2023/12/16 09:43:05;;;;;;;4.00;1.90;;;19.00;46.60;;;;;;5074432;28;20577;-61
2023/12/16 09:45:33;;;;;;;4.22;1.98;;;19.00;46.10;;;;;;5074014;28;20193;-60
2023/12/16 09:48:00;;;;;;;6.57;1.95;;;18.90;46.10;;;;;;5074027;28;20644;-60
2023/12/16 09:50:31;;;;;;;5.10;2.13;;;18.90;46.80;;;;;;5073304;28;20191;-60
2023/12/16 09:52:59;;;;;;;3.22;1.85;;;18.90;46.80;;;;;;5073505;28;20305;-59
2023/12/16 09:55:26;;;;;;;5.95;2.20;;;18.90;46.20;;;;;;5074124;28;20187;-60
2023/12/16 09:57:54;;;;;;;4.07;1.77;;;18.90;46.30;;;;;;5073906;28;20234;-60
2023/12/16 10:00:22;;;;;;;4.43;1.77;;;18.80;46.20;;;;;;5073592;28;20191;-60
2023/12/16 10:02:51;;;;;;;3.28;1.70;;;18.80;46.30;;;;;;5073960;28;20214;-60
2023/12/16 10:05:19;;;;;;;3.72;1.90;;;18.80;46.30;;;;;;5073846;28;20230;-60
2023/12/16 10:07:47;;;;;;;4.45;1.80;;;18.80;46.50;;;;;;5073562;28;20301;-60
2023/12/16 10:10:14;;;;;;;4.47;1.83;;;18.80;46.50;;;;;;5073544;28;20187;-59
2023/12/16 10:12:41;;;;;;;5.85;1.95;;;18.80;46.50;;;;;;5073432;28;20227;-60
2023/12/16 10:15:09;;;;;;;3.95;1.92;;;18.80;46.50;;;;;;5073290;28;20202;-60
2023/12/16 10:17:36;;;;;;;7.22;1.90;;;18.80;46.60;;;;;;5073514;28;20257;-60
2023/12/16 10:20:04;;;;;;;7.45;2.00;;;18.80;46.70;;;;;;5073598;28;20290;-60
2023/12/16 10:22:31;;;;;;;3.47;1.80;;;18.70;46.60;;;;;;5072843;28;20684;-60
2023/12/16 10:24:59;;;;;;;5.07;1.80;;;18.70;46.60;;;;;;5073827;28;20225;-60
2023/12/16 10:27:27;;;;;;;4.18;1.80;;;18.70;46.70;;;;;;5073407;28;20309;-61
2023/12/16 10:29:54;;;;;;;4.30;1.70;;;18.70;46.70;;;;;;5072973;28;20536;-60
2023/12/16 10:32:21;;;;;;;3.35;1.60;;;18.70;46.80;;;;;;5073309;28;20191;-60
2023/12/16 10:34:48;;;;;;;3.90;1.60;;;18.70;46.80;;;;;;5073282;28;20195;-60
2023/12/16 10:37:15;;;;;;;3.35;1.60;;;18.70;46.80;;;;;;5072857;28;20219;-61
2023/12/16 10:39:42;;;;;;;3.20;1.85;;;18.60;47.40;;;;;;5073152;28;20191;-61
2023/12/16 10:42:10;;;;;;;3.70;1.95;;;18.60;46.80;;;;;;5073053;28;20640;-60
2023/12/16 10:44:37;;;;;;;3.00;1.80;;;18.60;47.50;;;;;;5072905;28;20282;-60
2023/12/16 10:47:08;;;;;;;3.92;1.70;;;18.60;46.80;;;;;;5073036;28;20198;-60
2023/12/16 10:49:38;;;;;;;4.72;2.00;;;18.60;47.50;;;;;;5072969;28;20187;-60
2023/12/16 10:52:07;;;;;;;4.97;1.90;;;18.60;46.90;;;;;;5072612;28;20237;-61
2023/12/16 10:54:42;;;;;;;4.18;1.95;;;18.60;47.00;;;;;;5072999;28;20191;-60
2023/12/16 10:57:18;;;;;;;4.50;1.80;;;18.60;47.00;;;;;;5072672;28;20182;-61
2023/12/16 10:59:53;;;;;;;3.85;1.80;;;18.60;47.00;;;;;;5072453;28;20244;-60
2023/12/16 11:02:24;;;;;;;4.65;1.77;;;18.60;47.70;;;;;;5072636;28;20190;-59
2023/12/16 11:04:56;;;;;;;2.85;1.50;;;18.60;47.10;;;;;;5072852;28;20191;-60
2023/12/16 11:07:26;;;;;;;4.07;1.88;;;18.60;47.10;;;;;;5072457;28;20191;-60
2023/12/16 11:09:53;;;;;;;4.18;1.70;;;18.60;47.10;;;;;;5072652;28;20296;-60
2023/12/16 11:12:22;;;;;;;3.95;1.50;;;18.50;47.10;;;;;;5072288;28;20720;-59
2023/12/16 11:14:54;;;;;;;3.50;1.50;;;18.50;47.70;;;;;;5072633;28;20199;-60
2023/12/16 11:17:28;;;;;;;2.95;1.70;;;18.50;47.10;;;;;;5072222;28;20649;-60
2023/12/16 11:20:00;;;;;;;4.82;1.80;;;18.50;47.20;;;;;;5072343;28;20191;-60
2023/12/16 11:22:27;;;;;;;4.07;1.60;;;18.50;47.10;;;;;;5072390;28;20286;-60
2023/12/16 11:24:56;;;;;;;3.78;1.70;;;18.50;47.20;;;;;;5072788;28;20195;-60
2023/12/16 11:27:25;;;;;;;3.05;1.60;;;18.50;47.20;;;;;;5072087;28;20252;-60
2023/12/16 11:29:52;;;;;;;3.25;1.40;;;18.50;47.80;;;;;;5072496;28;20191;-60
2023/12/16 11:32:19;;;;;;;2.83;1.50;;;18.50;47.20;;;;;;5072141;28;20289;-61
2023/12/16 11:34:49;;;;;;;3.05;1.20;;;18.50;47.30;;;;;;5071785;28;20197;-60
2023/12/16 11:37:36;;;;;;;3.55;1.45;;;18.50;47.30;;;;;;5072320;28;20244;-61
2023/12/16 11:40:04;;;;;;;2.75;1.60;;;18.50;47.30;;;;;;5071964;28;20204;-60
2023/12/16 11:42:53;;;;;;;2.95;1.60;;;18.50;47.30;;;;;;5072037;28;20218;-60
2023/12/16 11:45:36;;;;;;;3.05;1.60;;;18.50;47.30;;;;;;5072578;28;20198;-61
2023/12/16 11:48:03;;;;;;;3.53;1.48;;;18.50;47.40;;;;;;5071949;28;20225;-60
2023/12/16 11:50:30;;;;;;;2.40;1.30;;;18.50;47.30;;;;;;5071888;28;20191;-60
2023/12/16 11:52:57;;;;;;;2.55;1.58;;;18.50;47.40;;;;;;5072224;28;20301;-60
2023/12/16 11:55:24;;;;;;;5.38;1.40;;;18.50;47.30;;;;;;5072080;28;20190;-60
2023/12/16 11:57:53;;;;;;;4.65;1.75;;;18.50;47.90;;;;;;5071414;28;20273;-61
2023/12/16 12:00:21;;;;;;;4.15;1.75;;;18.40;47.30;;;;;;5072053;28;20187;-58
2023/12/16 12:02:49;;;;;;;3.30;1.60;;;18.50;47.40;;;;;;5072163;28;20221;-61
2023/12/16 12:05:17;;;;;;;2.45;1.33;;;18.50;47.40;;;;;;5071760;28;20187;-60
2023/12/16 12:07:44;;;;;;;2.53;1.30;;;18.40;48.10;;;;;;5072069;28;20221;-60
2023/12/16 12:10:11;;;;;;;2.97;1.33;;;18.40;47.40;;;;;;5071975;28;20195;-59
2023/12/16 12:12:38;;;;;;;2.63;1.58;;;18.40;47.30;;;;;;5072412;28;20230;-61
2023/12/16 12:15:08;;;;;;;2.13;1.40;;;18.40;47.30;;;;;;5076153;28;20199;-61
2023/12/16 12:17:35;;;;;;;3.42;1.38;;;18.50;47.30;;;;;;5075430;28;20290;-60
2023/12/16 12:20:03;;;;;;;6.35;1.45;;;18.50;47.30;;;;;;5076496;28;20191;-61
2023/12/16 12:22:33;;;;;;;7.78;1.70;;;18.60;47.80;;;;;;5080410;28;20667;-62
2023/12/16 12:25:00;;;;;;;4.97;1.80;;;18.70;48.20;;;;;;5076465;28;20283;-61
2023/12/16 12:27:29;;;;;;;10.02;2.05;;;18.90;49.50;;;;;;5095187;28;20213;-62
2023/12/16 12:29:56;;;;;;;7.85;1.95;;;19.10;49.20;;;;;;5095440;28;20218;-61
2023/12/16 12:32:25;;;;;;;9.90;1.75;;;19.20;49.50;;;;;;5095463;28;20217;-61
2023/12/16 12:35:02;;;;;;;10.93;2.05;;;19.40;48.50;;;;;;5095175;28;20193;-62
2023/12/16 12:37:35;;;;;;;81.00;8.15;;;19.50;48.90;;;;;;5092145;28;20277;-62
2023/12/16 12:40:03;;;;;;;20.15;2.83;;;19.60;47.50;;;;;;5094662;28;20280;-61
2023/12/16 12:42:30;;;;;;;33.95;3.80;;;19.60;47.70;;;;;;5094669;28;20190;-60
2023/12/16 12:44:58;;;;;;;17.45;2.88;;;19.70;48.10;;;;;;5094507;28;20278;-62
2023/12/16 12:47:32;;;;;;;15.10;2.30;;;19.90;48.00;;;;;;5094213;28;20717;-61